createdAt,value
2023-03-31T00:01:52.863Z,10.78
2023-03-31T00:04:24.067Z,10.78
2023-03-31T00:06:54.427Z,10.78
2023-03-31T00:09:22.212Z,10.75
2023-03-31T00:11:52.631Z,10.78
2023-03-31T00:14:21.157Z,10.78
2023-03-31T00:16:48.048Z,10.74
2023-03-31T00:19:21.329Z,10.65
2023-03-31T00:21:48.896Z,10.62
2023-03-31T00:24:18.434Z,10.57
2023-03-31T00:26:45.345Z,10.50
2023-03-31T00:29:13.854Z,10.46
2023-03-31T00:31:40.863Z,10.38
2023-03-31T00:34:07.972Z,10.31
2023-03-31T00:36:36.797Z,10.23
2023-03-31T00:39:09.247Z,10.13
2023-03-31T00:41:39.207Z,10.07
2023-03-31T00:44:35.933Z,10.03
2023-03-31T00:47:21.086Z,9.92
2023-03-31T00:49:51.816Z,10.01
2023-03-31T00:52:24.555Z,10.07
2023-03-31T00:55:01.418Z,10.15
2023-03-31T00:57:28.925Z,10.22
2023-03-31T00:59:59.499Z,10.19
2023-03-31T01:02:26.275Z,10.12
2023-03-31T01:04:57.421Z,10.05
2023-03-31T01:07:38.935Z,9.98
2023-03-31T01:10:06.608Z,9.93
2023-03-31T01:12:34.591Z,9.89
2023-03-31T01:15:01.683Z,9.83
2023-03-31T01:17:29.999Z,9.82
2023-03-31T01:20:13.814Z,9.82
2023-03-31T01:23:31.522Z,9.77
2023-03-31T01:26:38.651Z,9.74
2023-03-31T01:29:27.698Z,9.72
2023-03-31T01:32:08.635Z,9.70
2023-03-31T01:34:41.330Z,9.69
2023-03-31T01:37:25.992Z,9.65
2023-03-31T01:40:33.896Z,9.69
2023-03-31T01:43:05.607Z,9.66
2023-03-31T01:45:41.190Z,9.70
2023-03-31T01:48:23.629Z,9.71
2023-03-31T01:50:57.372Z,9.68
2023-03-31T01:53:33.392Z,9.65
2023-03-31T01:56:05.733Z,9.63
2023-03-31T01:58:39.191Z,9.58
2023-03-31T02:01:16.906Z,9.54
2023-03-31T02:03:49.752Z,9.53
2023-03-31T02:06:21.996Z,9.47
2023-03-31T02:08:53.801Z,9.39
2023-03-31T02:11:21.431Z,9.35
2023-03-31T02:13:49.367Z,9.31
2023-03-31T02:16:21.963Z,9.20
2023-03-31T02:18:50.100Z,9.22
2023-03-31T02:21:17.294Z,9.18
2023-03-31T02:23:44.745Z,9.18
2023-03-31T02:26:14.772Z,9.09
2023-03-31T02:28:41.572Z,8.99
2023-03-31T02:31:35.172Z,8.90
2023-03-31T02:34:02.942Z,8.83
2023-03-31T02:36:30.742Z,8.73
2023-03-31T02:39:07.310Z,8.65
2023-03-31T02:41:34.277Z,8.58
2023-03-31T02:44:01.322Z,8.53
2023-03-31T02:46:28.943Z,8.46
2023-03-31T02:48:57.437Z,8.48
2023-03-31T02:51:29.728Z,8.47
2023-03-31T02:54:21.473Z,8.43
2023-03-31T02:57:00.391Z,8.41
2023-03-31T02:59:51.015Z,8.38
2023-03-31T03:02:33.078Z,8.38
2023-03-31T03:05:09.201Z,8.37
2023-03-31T03:07:54.663Z,8.33
2023-03-31T03:10:54.677Z,8.29
2023-03-31T03:13:33.226Z,8.28
2023-03-31T03:16:28.907Z,8.27
2023-03-31T03:18:58.007Z,8.28
2023-03-31T03:21:24.985Z,8.29
2023-03-31T03:23:52.954Z,8.28
2023-03-31T03:26:21.497Z,8.28
2023-03-31T03:28:49.074Z,8.27
2023-03-31T03:31:15.908Z,8.29
2023-03-31T03:33:43.234Z,8.27
2023-03-31T03:36:10.701Z,8.21
2023-03-31T03:38:37.412Z,8.18
2023-03-31T03:41:04.344Z,8.14
2023-03-31T03:43:31.108Z,8.12
2023-03-31T03:45:58.096Z,8.10
2023-03-31T03:48:25.127Z,8.08
2023-03-31T03:50:53.276Z,8.06
2023-03-31T03:53:20.598Z,8.02
2023-03-31T03:55:50.386Z,8.03
2023-03-31T03:58:19.015Z,8.02
2023-03-31T04:00:46.192Z,7.98
2023-03-31T04:03:13.474Z,7.96
2023-03-31T04:05:40.308Z,7.96
2023-03-31T04:08:08.488Z,7.94
2023-03-31T04:10:36.039Z,7.90
2023-03-31T04:13:03.045Z,7.84
2023-03-31T04:15:29.780Z,7.82
2023-03-31T04:17:58.333Z,7.79
2023-03-31T04:20:27.949Z,7.77
2023-03-31T04:22:54.876Z,7.75
2023-03-31T04:25:22.787Z,7.73
2023-03-31T04:27:54.621Z,7.72
2023-03-31T04:30:30.552Z,7.69
2023-03-31T04:32:59.927Z,7.67
2023-03-31T04:35:42.611Z,7.64
2023-03-31T04:38:09.953Z,7.60
2023-03-31T04:40:36.808Z,7.58
2023-03-31T04:43:03.531Z,7.49
2023-03-31T04:45:30.390Z,7.44
2023-03-31T04:47:57.140Z,7.41
2023-03-31T04:50:23.884Z,7.36
2023-03-31T04:52:50.718Z,7.32
2023-03-31T04:55:17.531Z,7.31
2023-03-31T04:57:44.181Z,7.28
2023-03-31T05:00:11.541Z,7.31
2023-03-31T05:02:38.330Z,7.25
2023-03-31T05:05:06.049Z,7.26
2023-03-31T05:07:32.801Z,7.23
2023-03-31T05:09:59.497Z,7.26
2023-03-31T05:12:26.286Z,7.26
2023-03-31T05:14:53.089Z,7.30
2023-03-31T05:17:19.879Z,7.31
2023-03-31T05:19:46.566Z,7.40
2023-03-31T05:22:13.234Z,7.45
2023-03-31T05:24:40.039Z,7.54
2023-03-31T05:27:06.800Z,7.60
2023-03-31T05:29:33.602Z,7.68
2023-03-31T05:32:00.349Z,7.79
2023-03-31T05:34:27.146Z,7.92
2023-03-31T05:36:53.994Z,8.10
2023-03-31T05:39:21.303Z,8.28
2023-03-31T05:41:48.255Z,8.50
2023-03-31T05:44:15.580Z,8.74
2023-03-31T05:46:42.561Z,8.99
2023-03-31T05:49:09.972Z,9.22
2023-03-31T05:51:36.751Z,9.48
2023-03-31T05:54:03.549Z,9.80
2023-03-31T05:56:30.271Z,10.10
2023-03-31T05:58:57.642Z,10.53
2023-03-31T06:01:25.030Z,10.86
2023-03-31T06:03:52.407Z,11.00
2023-03-31T06:06:19.489Z,11.22
2023-03-31T06:08:47.242Z,11.33
2023-03-31T06:11:16.684Z,11.42
2023-03-31T06:13:43.495Z,11.49
2023-03-31T06:16:11.917Z,11.55
2023-03-31T06:18:39.370Z,11.61
2023-03-31T06:21:07.049Z,11.64
2023-03-31T06:23:34.510Z,11.70
2023-03-31T06:26:04.251Z,11.76
2023-03-31T06:28:31.233Z,11.83
2023-03-31T06:31:06.533Z,11.93
2023-03-31T06:33:34.200Z,11.98
2023-03-31T06:36:04.092Z,12.15
2023-03-31T06:38:31.555Z,12.29
2023-03-31T06:40:58.261Z,12.39
2023-03-31T06:43:25.069Z,12.57
2023-03-31T06:45:55.403Z,12.73
2023-03-31T06:48:25.996Z,13.00
2023-03-31T06:50:59.112Z,13.22
2023-03-31T06:53:26.098Z,13.37
2023-03-31T06:55:52.990Z,13.60
2023-03-31T06:58:19.799Z,13.82
2023-03-31T07:00:46.594Z,13.91
2023-03-31T07:03:14.114Z,13.98
2023-03-31T07:05:41.081Z,14.33
2023-03-31T07:08:07.858Z,14.67
2023-03-31T07:10:34.620Z,15.02
2023-03-31T07:13:02.309Z,15.30
2023-03-31T07:15:30.558Z,15.49
2023-03-31T07:18:02.129Z,15.66
2023-03-31T07:20:31.298Z,15.62
2023-03-31T07:23:00.425Z,15.76
2023-03-31T07:25:28.362Z,15.93
2023-03-31T07:27:56.438Z,16.13
2023-03-31T07:30:25.410Z,16.29
2023-03-31T07:32:52.715Z,16.47
2023-03-31T07:35:20.288Z,16.62
2023-03-31T07:37:48.323Z,16.84
2023-03-31T07:40:21.505Z,16.53
2023-03-31T07:42:49.536Z,16.59
2023-03-31T07:45:16.850Z,16.66
2023-03-31T07:47:44.821Z,16.64
2023-03-31T07:50:12.297Z,16.59
2023-03-31T07:52:39.695Z,16.38
2023-03-31T07:55:07.775Z,16.57
2023-03-31T07:57:35.825Z,16.87
2023-03-31T08:00:07.827Z,16.75
2023-03-31T08:02:35.030Z,16.66
2023-03-31T08:05:02.005Z,16.50
2023-03-31T08:07:30.990Z,16.67
2023-03-31T08:09:58.593Z,16.64
2023-03-31T08:12:25.500Z,16.51
2023-03-31T08:14:52.462Z,16.44
2023-03-31T08:17:19.304Z,16.56
2023-03-31T08:19:46.103Z,16.49
2023-03-31T08:22:12.868Z,16.69
2023-03-31T08:24:39.629Z,16.74
2023-03-31T08:27:12.058Z,16.76
2023-03-31T08:29:39.148Z,16.80
2023-03-31T08:32:07.106Z,17.06
2023-03-31T08:34:34.168Z,17.43
2023-03-31T08:37:00.867Z,17.45
2023-03-31T08:39:27.605Z,17.61
2023-03-31T08:41:58.704Z,18.22
2023-03-31T08:44:31.732Z,18.61
2023-03-31T08:47:00.897Z,19.18
2023-03-31T08:49:29.498Z,19.78
2023-03-31T08:51:59.557Z,20.30
2023-03-31T08:54:37.524Z,20.73
2023-03-31T08:57:06.353Z,21.13
2023-03-31T08:59:34.274Z,21.41
2023-03-31T09:02:32.029Z,21.52
2023-03-31T09:05:11.511Z,21.19
2023-03-31T09:07:48.436Z,20.80
2023-03-31T09:10:38.605Z,20.31
2023-03-31T09:13:36.492Z,20.04
2023-03-31T09:16:15.578Z,19.89
2023-03-31T09:18:49.333Z,19.56
2023-03-31T09:21:32.428Z,19.60
2023-03-31T09:24:30.989Z,20.06
2023-03-31T09:27:02.453Z,20.64
2023-03-31T09:30:06.991Z,21.27
2023-03-31T09:32:33.881Z,21.67
2023-03-31T09:43:32.272Z,23.37
2023-03-31T09:46:09.114Z,23.72
2023-03-31T09:48:50.737Z,23.14
2023-03-31T09:51:30.587Z,23.29
2023-03-31T09:54:16.144Z,23.25
2023-03-31T09:56:43.149Z,23.09
2023-03-31T09:59:20.594Z,23.31
2023-03-31T10:01:50.348Z,23.39
2023-03-31T10:04:22.906Z,23.53
2023-03-31T10:06:52.917Z,23.45
2023-03-31T10:09:23.214Z,23.63
2023-03-31T10:12:15.449Z,23.21
2023-03-31T10:14:46.462Z,22.45
2023-03-31T10:17:21.811Z,21.96
2023-03-31T10:19:59.408Z,22.26
2023-03-31T10:22:31.218Z,22.61
2023-03-31T10:25:11.223Z,23.03
2023-03-31T10:27:40.293Z,22.66
2023-03-31T10:30:11.717Z,22.58
2023-03-31T10:32:43.275Z,21.85
2023-03-31T10:35:32.817Z,22.53
2023-03-31T10:38:06.484Z,22.78
2023-03-31T10:40:34.683Z,23.03
2023-03-31T10:43:14.385Z,22.32
2023-03-31T10:45:51.140Z,22.70
2023-03-31T10:48:19.390Z,23.06
2023-03-31T10:50:46.192Z,23.55
2023-03-31T10:53:15.547Z,23.61
2023-03-31T10:55:56.777Z,23.37
2023-03-31T10:58:29.550Z,24.16
2023-03-31T11:01:34.623Z,25.04
2023-03-31T11:04:21.524Z,25.55
2023-03-31T11:06:54.237Z,25.20
2023-03-31T11:09:43.491Z,24.94
2023-03-31T11:12:10.426Z,24.20
2023-03-31T11:15:05.859Z,23.24
2023-03-31T11:17:35.653Z,23.38
2023-03-31T11:20:10.982Z,24.12
2023-03-31T11:23:29.052Z,25.01
2023-03-31T11:26:02.250Z,23.38
2023-03-31T11:28:38.890Z,23.08
2023-03-31T11:31:22.985Z,22.18
2023-03-31T11:33:58.684Z,21.76
2023-03-31T11:36:57.399Z,21.47
2023-03-31T11:39:56.859Z,21.12
2023-03-31T11:42:29.051Z,21.24
2023-03-31T11:45:02.688Z,21.26
2023-03-31T11:47:37.255Z,21.26
2023-03-31T11:50:11.365Z,22.71
2023-03-31T11:52:42.063Z,23.98
2023-03-31T11:55:15.440Z,25.67
2023-03-31T11:57:46.637Z,25.94
2023-03-31T12:00:18.372Z,26.49
2023-03-31T12:03:11.668Z,26.44
2023-03-31T12:05:42.660Z,26.75
2023-03-31T12:08:36.128Z,26.04
2023-03-31T12:11:11.331Z,24.53
2023-03-31T12:13:48.067Z,23.75
2023-03-31T12:16:17.772Z,23.20
2023-03-31T12:18:54.565Z,22.96
2023-03-31T12:21:22.536Z,22.24
2023-03-31T12:23:53.861Z,22.06
2023-03-31T12:26:58.969Z,21.98
2023-03-31T12:29:38.417Z,21.50
2023-03-31T12:32:24.140Z,21.70
2023-03-31T12:35:29.878Z,22.86
2023-03-31T12:38:16.591Z,23.81
2023-03-31T12:40:52.288Z,25.81
2023-03-31T12:43:37.268Z,26.90
2023-03-31T12:46:36.344Z,26.57
2023-03-31T12:49:15.864Z,26.28
2023-03-31T12:51:51.455Z,25.22
2023-03-31T12:54:36.205Z,23.95
2023-03-31T12:57:05.974Z,22.83
2023-03-31T12:59:41.033Z,21.92
2023-03-31T13:02:16.576Z,21.41
2023-03-31T13:04:44.227Z,21.01
2023-03-31T13:07:37.897Z,20.70
2023-03-31T13:10:31.551Z,21.23
2023-03-31T13:13:05.425Z,21.60
2023-03-31T13:15:32.576Z,21.52
2023-03-31T13:18:01.436Z,21.50
2023-03-31T13:20:39.222Z,21.57
2023-03-31T13:23:12.045Z,21.09
2023-03-31T13:25:38.917Z,21.15
2023-03-31T13:28:13.754Z,21.49
2023-03-31T13:30:40.761Z,20.42
2023-03-31T13:33:17.779Z,19.97
2023-03-31T13:35:53.060Z,19.56
2023-03-31T13:38:30.482Z,19.32
2023-03-31T13:41:26.571Z,19.00
2023-03-31T13:44:07.074Z,18.98
2023-03-31T13:46:47.880Z,18.96
2023-03-31T13:49:54.156Z,18.87
2023-03-31T13:52:43.380Z,18.67
2023-03-31T13:55:21.449Z,18.58
2023-03-31T13:58:32.782Z,18.29
2023-03-31T14:01:16.385Z,18.11
2023-03-31T14:03:49.502Z,18.01
2023-03-31T14:06:34.995Z,17.88
2023-03-31T14:09:05.892Z,17.78
2023-03-31T14:11:33.307Z,17.69
2023-03-31T14:14:04.728Z,17.64
2023-03-31T14:16:39.782Z,17.58
2023-03-31T14:19:38.831Z,17.79
2023-03-31T14:22:23.872Z,18.29
2023-03-31T14:25:06.649Z,21.40
2023-03-31T14:27:47.769Z,23.52
2023-03-31T14:30:38.463Z,24.91
2023-03-31T14:33:36.165Z,25.19
2023-03-31T14:36:16.522Z,25.61
2023-03-31T14:38:43.632Z,25.74
2023-03-31T14:41:21.030Z,25.24
2023-03-31T14:43:50.495Z,23.76
2023-03-31T14:46:22.222Z,23.58
2023-03-31T14:48:51.008Z,23.45
2023-03-31T14:51:24.047Z,22.72
2023-03-31T14:54:01.505Z,22.25
2023-03-31T14:56:52.965Z,22.60
2023-03-31T14:59:25.797Z,23.25
2023-03-31T15:01:52.661Z,23.12
2023-03-31T15:04:31.961Z,21.92
2023-03-31T15:07:06.534Z,23.09
2023-03-31T15:09:34.956Z,23.10
2023-03-31T15:12:13.636Z,22.43
2023-03-31T15:14:49.485Z,22.62
2023-03-31T15:17:28.760Z,21.26
2023-03-31T15:19:57.492Z,20.61
2023-03-31T15:22:26.644Z,19.79
2023-03-31T15:24:54.073Z,19.53
2023-03-31T15:27:26.358Z,18.90
2023-03-31T15:29:59.274Z,18.53
2023-03-31T15:32:27.619Z,18.10
2023-03-31T15:34:55.493Z,17.90
2023-03-31T15:37:32.656Z,17.68
2023-03-31T15:40:01.110Z,17.52
2023-03-31T15:42:28.112Z,17.36
2023-03-31T15:44:57.518Z,17.26
2023-03-31T15:47:31.815Z,17.15
2023-03-31T15:50:13.265Z,17.02
2023-03-31T15:52:48.128Z,16.84
2023-03-31T15:55:31.202Z,16.76
2023-03-31T15:58:00.423Z,16.73
2023-03-31T16:00:48.528Z,16.70
2023-03-31T16:03:18.417Z,16.65
2023-03-31T16:05:55.755Z,16.54
2023-03-31T16:08:27.503Z,16.47
2023-03-31T16:11:00.580Z,16.49
2023-03-31T16:13:29.232Z,16.46
2023-03-31T16:15:56.393Z,16.33
2023-03-31T16:18:26.227Z,16.24
2023-03-31T16:21:00.026Z,16.12
2023-03-31T16:23:30.309Z,16.00
2023-03-31T16:25:57.015Z,15.88
2023-03-31T16:28:26.428Z,15.77
2023-03-31T16:30:54.599Z,15.68
2023-03-31T16:33:25.947Z,15.60
2023-03-31T16:35:55.983Z,15.49
2023-03-31T16:38:24.424Z,15.42
2023-03-31T16:40:53.222Z,15.40
2023-03-31T16:43:19.868Z,15.42
2023-03-31T16:45:48.807Z,15.36
2023-03-31T16:48:19.359Z,15.26
2023-03-31T16:50:47.517Z,15.16
2023-03-31T16:53:16.162Z,15.08
2023-03-31T16:55:43.239Z,15.05
2023-03-31T16:58:10.538Z,14.96
2023-03-31T17:00:37.319Z,14.88
2023-03-31T17:03:04.941Z,14.82
2023-03-31T17:05:34.112Z,14.74
2023-03-31T17:08:01.147Z,14.70
2023-03-31T17:10:28.101Z,14.66
2023-03-31T17:12:54.884Z,14.61
2023-03-31T17:15:22.426Z,14.58
2023-03-31T17:17:49.385Z,14.51
2023-03-31T17:20:16.570Z,14.46
2023-03-31T17:22:43.324Z,14.40
2023-03-31T17:25:10.325Z,14.35
2023-03-31T17:27:37.617Z,14.27
2023-03-31T17:32:37.800Z,14.20
2023-03-31T17:35:05.053Z,14.16
2023-03-31T17:37:33.042Z,14.15
2023-03-31T17:39:59.776Z,14.13
2023-03-31T17:42:26.670Z,14.09
2023-03-31T17:44:53.725Z,14.03
2023-03-31T17:47:20.669Z,14.04
2023-03-31T17:49:47.448Z,14.06
2023-03-31T17:52:14.127Z,14.10
2023-03-31T17:54:40.930Z,14.10
2023-03-31T17:57:07.818Z,14.09
2023-03-31T17:59:35.191Z,14.13
2023-03-31T18:02:03.021Z,14.19
2023-03-31T18:04:29.976Z,14.17
2023-03-31T18:06:57.447Z,14.18
2023-03-31T18:09:25.097Z,14.21
2023-03-31T18:11:51.958Z,14.19
2023-03-31T18:14:18.670Z,14.16
2023-03-31T18:16:45.893Z,14.15
2023-03-31T18:19:12.790Z,14.15
2023-03-31T18:21:39.525Z,14.17
2023-03-31T18:24:06.493Z,14.18
2023-03-31T18:26:33.209Z,14.18
2023-03-31T18:28:59.992Z,14.15
2023-03-31T18:31:29.365Z,14.15
2023-03-31T18:33:56.364Z,14.09
2023-03-31T18:36:23.937Z,14.05
2023-03-31T18:38:51.464Z,14.06
2023-03-31T18:41:19.298Z,14.04
2023-03-31T18:43:47.725Z,14.06
2023-03-31T18:46:14.588Z,14.02
2023-03-31T18:48:42.042Z,14.02
2023-03-31T18:51:09.560Z,14.01
2023-03-31T18:53:36.744Z,13.96
2023-03-31T18:56:03.629Z,13.91
2023-03-31T18:58:31.631Z,13.84
2023-03-31T19:00:58.896Z,13.82
2023-03-31T19:03:26.975Z,13.79
2023-03-31T19:06:00.877Z,13.76
2023-03-31T19:08:27.615Z,13.70
2023-03-31T19:11:16.029Z,13.63
2023-03-31T19:13:43.891Z,13.57
2023-03-31T19:16:12.115Z,13.52
2023-03-31T19:18:39.538Z,13.42
2023-03-31T19:21:06.426Z,13.20
2023-03-31T19:23:34.139Z,13.12
2023-03-31T19:26:02.572Z,12.92
2023-03-31T19:28:30.481Z,12.87
2023-03-31T19:30:57.884Z,12.82
2023-03-31T19:33:26.039Z,12.70
2023-03-31T19:35:52.962Z,12.67
2023-03-31T19:38:21.546Z,12.63
2023-03-31T19:40:48.833Z,12.57
2023-03-31T19:43:20.184Z,12.49
2023-03-31T19:45:48.189Z,12.46
2023-03-31T19:48:15.658Z,12.34
2023-03-31T19:50:47.411Z,12.28
2023-03-31T19:53:14.099Z,12.22
2023-03-31T19:55:42.162Z,12.14
2023-03-31T19:58:09.363Z,12.16
2023-03-31T20:00:36.963Z,12.10
2023-03-31T20:03:04.075Z,12.12
2023-03-31T20:05:32.573Z,12.07
2023-03-31T20:07:59.395Z,12.04
2023-03-31T20:10:26.460Z,12.04
2023-03-31T20:12:53.308Z,11.97
2023-03-31T20:15:20.110Z,11.91
2023-03-31T20:17:47.206Z,11.79
2023-03-31T20:20:14.010Z,11.69
2023-03-31T20:22:41.406Z,11.54
2023-03-31T20:25:08.600Z,11.36
2023-03-31T20:27:35.354Z,11.27
2023-03-31T20:30:02.214Z,11.23
2023-03-31T20:32:29.226Z,11.17
2023-03-31T20:34:55.934Z,11.18
2023-03-31T20:37:22.697Z,11.14
2023-03-31T20:39:49.546Z,11.07
2023-03-31T20:42:16.748Z,11.05
2023-03-31T20:44:43.569Z,11.06
2023-03-31T20:47:10.275Z,11.04
2023-03-31T20:49:37.093Z,11.04
2023-03-31T20:52:04.671Z,11.03
2023-03-31T20:54:32.079Z,11.00
2023-03-31T20:57:01.058Z,10.95
2023-03-31T20:59:27.837Z,10.94
2023-03-31T21:01:54.585Z,10.89
2023-03-31T21:04:21.934Z,10.90
2023-03-31T21:06:48.880Z,10.93
2023-03-31T21:09:16.505Z,10.89
2023-03-31T21:11:43.339Z,10.88
2023-03-31T21:14:14.656Z,10.90
2023-03-31T21:16:41.457Z,10.93
2023-03-31T21:19:08.214Z,10.91
2023-03-31T21:21:36.220Z,10.87
2023-03-31T21:24:03.255Z,10.91
2023-03-31T21:26:30.018Z,10.84
2023-03-31T21:28:56.786Z,10.88
2023-03-31T21:31:25.093Z,10.86
2023-03-31T21:33:53.124Z,10.81
2023-03-31T21:36:22.753Z,10.76
2023-03-31T21:38:50.597Z,10.72
2023-03-31T21:41:20.644Z,10.72
2023-03-31T21:43:48.780Z,10.71
2023-03-31T21:46:21.604Z,10.70
2023-03-31T21:48:49.358Z,10.70
2023-03-31T21:51:17.984Z,10.70
2023-03-31T21:53:44.913Z,10.68
2023-03-31T21:56:11.670Z,10.70
2023-03-31T21:58:38.416Z,10.69
2023-03-31T22:01:06.338Z,10.68
2023-03-31T22:03:34.537Z,10.63
2023-03-31T22:06:03.629Z,10.61
2023-03-31T22:08:32.040Z,10.63
2023-03-31T22:11:00.242Z,10.64
2023-03-31T22:13:28.314Z,10.66
2023-03-31T22:15:56.240Z,10.68
2023-03-31T22:18:23.729Z,10.73
2023-03-31T22:20:50.931Z,10.72
2023-03-31T22:23:17.928Z,10.71
2023-03-31T22:25:44.750Z,10.69
2023-03-31T22:28:12.627Z,10.67
2023-03-31T22:30:39.480Z,10.68
2023-03-31T22:33:06.294Z,10.65
2023-03-31T22:35:33.233Z,10.62
2023-03-31T22:38:01.379Z,10.61
2023-03-31T22:40:29.351Z,10.60
2023-03-31T22:42:58.318Z,10.54
2023-03-31T22:45:25.437Z,10.52
2023-03-31T22:47:52.253Z,10.43
2023-03-31T22:50:19.007Z,10.46
2023-03-31T22:52:46.071Z,10.46
2023-03-31T22:55:12.921Z,10.42
2023-03-31T22:57:39.871Z,10.38
2023-03-31T23:00:07.707Z,10.35
2023-03-31T23:02:34.549Z,10.31
2023-03-31T23:05:01.321Z,10.28
2023-03-31T23:07:29.350Z,10.22
2023-03-31T23:09:56.311Z,10.19
2023-03-31T23:12:25.943Z,10.13
2023-03-31T23:14:52.686Z,10.09
2023-03-31T23:17:19.537Z,10.06
2023-03-31T23:19:50.467Z,10.04
2023-03-31T23:22:18.610Z,10.00
2023-03-31T23:24:45.384Z,9.95
2023-03-31T23:27:12.089Z,9.93
2023-03-31T23:29:38.938Z,9.92
2023-03-31T23:32:05.929Z,9.91
2023-03-31T23:34:32.823Z,9.90
2023-03-31T23:36:59.549Z,9.89
2023-03-31T23:39:26.423Z,9.88
2023-03-31T23:41:53.549Z,9.86
2023-03-31T23:44:20.304Z,9.81
2023-03-31T23:46:47.186Z,9.76
2023-03-31T23:49:13.901Z,9.74
2023-03-31T23:51:40.840Z,9.70
2023-03-31T23:54:07.554Z,9.69
2023-03-31T23:56:34.555Z,9.65
2023-03-31T23:59:01.315Z,9.66
